createdAt,value
2023-02-28T00:49:20.153Z,4.15
2023-02-28T00:51:46.646Z,4.45
2023-02-28T00:54:13.388Z,4.60
2023-02-28T01:23:27.964Z,5.30
2023-02-28T01:32:58.174Z,4.97
2023-02-28T01:35:24.635Z,5.60
2023-02-28T01:46:05.944Z,5.50
2023-02-28T02:17:47.023Z,7.45
2023-02-28T02:20:47.605Z,7.88
2023-02-28T02:51:02.588Z,8.82
2023-02-28T02:57:27.999Z,9.40
2023-02-28T02:59:58.073Z,8.57
2023-02-28T03:05:53.074Z,9.20
2023-02-28T03:13:10.877Z,10.10
2023-02-28T03:20:36.693Z,9.20
2023-02-28T03:31:46.006Z,9.30
2023-02-28T03:42:06.977Z,9.75
2023-02-28T04:04:18.528Z,10.95
2023-02-28T04:32:22.267Z,11.65
2023-02-28T05:04:17.222Z,11.38
2023-02-28T06:47:29.524Z,10.38
2023-02-28T06:57:34.771Z,10.13
2023-02-28T07:00:02.669Z,11.20
2023-02-28T07:06:09.731Z,10.63
2023-02-28T07:08:36.991Z,9.27
2023-02-28T07:14:49.960Z,11.80
2023-02-28T07:20:57.470Z,11.15
2023-02-28T07:23:24.158Z,9.38
2023-02-28T07:29:38.754Z,8.88
2023-02-28T07:32:05.543Z,9.50
2023-02-28T07:38:18.983Z,7.38
2023-02-28T07:40:45.491Z,6.53
2023-02-28T07:47:12.757Z,7.00
2023-02-28T07:49:39.408Z,9.55
2023-02-28T07:55:46.545Z,11.23
2023-02-28T07:58:13.011Z,7.93
2023-02-28T08:04:43.079Z,7.80
2023-02-28T08:15:01.411Z,8.45
2023-02-28T08:32:29.346Z,7.22
2023-02-28T08:34:57.232Z,6.95
2023-02-28T08:38:11.640Z,6.38
2023-02-28T09:04:35.159Z,6.32
2023-02-28T09:07:01.673Z,7.30
2023-02-28T09:10:00.573Z,5.80
2023-02-28T09:22:56.638Z,6.47
2023-02-28T09:25:23.374Z,6.35
2023-02-28T09:39:42.713Z,6.25
2023-02-28T09:50:00.891Z,7.13
2023-02-28T09:56:31.367Z,6.85
2023-02-28T10:03:57.703Z,6.32
2023-02-28T10:10:28.905Z,6.82
2023-02-28T10:12:58.277Z,6.72
2023-02-28T10:23:22.621Z,5.88
2023-02-28T10:30:10.170Z,9.10
2023-02-28T10:32:39.786Z,5.97
2023-02-28T10:37:49.688Z,5.95
2023-02-28T10:49:07.512Z,5.90
2023-02-28T10:56:06.071Z,6.22
2023-02-28T11:02:30.895Z,5.75
2023-02-28T11:04:57.450Z,5.80
2023-02-28T11:11:48.030Z,6.25
2023-02-28T11:18:30.922Z,6.35
2023-02-28T11:51:57.847Z,4.55
2023-02-28T12:05:51.145Z,5.97
2023-02-28T12:12:42.742Z,5.38
2023-02-28T12:15:09.364Z,5.10
2023-02-28T12:21:35.037Z,4.80
2023-02-28T12:27:51.359Z,5.30
2023-02-28T12:57:12.535Z,7.25
2023-02-28T13:03:50.728Z,4.95
2023-02-28T13:06:44.745Z,5.55
2023-02-28T13:20:22.517Z,5.53
2023-02-28T13:22:53.768Z,4.50
2023-02-28T13:25:23.332Z,4.75
2023-02-28T13:28:01.949Z,5.07
2023-02-28T13:30:56.919Z,4.78
2023-02-28T13:37:17.715Z,5.22
2023-02-28T13:44:05.119Z,5.30
2023-02-28T13:50:27.230Z,5.20
2023-02-28T13:57:01.583Z,5.40
2023-02-28T13:59:39.686Z,4.78
2023-02-28T14:02:28.602Z,5.50
2023-02-28T14:09:45.741Z,5.45
2023-02-28T14:12:49.687Z,4.95
2023-02-28T14:15:35.067Z,5.47
2023-02-28T14:18:06.560Z,5.53
2023-02-28T14:20:34.836Z,4.72
2023-02-28T14:27:18.761Z,5.88
2023-02-28T14:42:33.741Z,5.38
2023-02-28T14:45:00.559Z,5.22
2023-02-28T14:47:32.592Z,5.80
2023-02-28T14:50:01.518Z,5.40
2023-02-28T14:52:33.989Z,5.07
2023-02-28T14:55:08.121Z,5.07
2023-02-28T14:57:40.100Z,5.88
2023-02-28T15:00:22.511Z,6.60
2023-02-28T15:02:49.311Z,11.18
2023-02-28T15:05:18.711Z,6.70
2023-02-28T15:07:47.281Z,6.43
2023-02-28T15:10:18.863Z,5.38
2023-02-28T15:19:45.901Z,12.63
2023-02-28T15:22:18.958Z,11.93
2023-02-28T15:24:49.794Z,10.30
2023-02-28T15:27:23.129Z,5.88
2023-02-28T15:29:53.051Z,6.60
2023-02-28T15:32:38.066Z,6.70
2023-02-28T15:35:32.506Z,5.72
2023-02-28T15:38:02.012Z,6.85
2023-02-28T15:40:32.770Z,7.40
2023-02-28T15:43:24.409Z,7.32
2023-02-28T15:45:58.815Z,6.85
2023-02-28T15:48:30.201Z,6.05
2023-02-28T15:51:03.957Z,6.50
2023-02-28T15:53:34.397Z,6.68
2023-02-28T15:56:22.939Z,6.63
2023-02-28T15:58:49.884Z,6.35
2023-02-28T16:01:31.442Z,7.18
2023-02-28T16:04:20.031Z,7.47
2023-02-28T16:06:47.825Z,5.95
2023-02-28T16:09:16.802Z,7.05
2023-02-28T16:11:52.672Z,8.52
2023-02-28T16:14:28.475Z,6.70
2023-02-28T16:16:57.872Z,6.57
2023-02-28T16:19:24.817Z,6.78
2023-02-28T16:21:52.191Z,6.75
2023-02-28T16:24:18.930Z,7.10
2023-02-28T16:26:49.453Z,5.88
2023-02-28T16:29:35.446Z,6.07
2023-02-28T16:32:04.988Z,6.30
2023-02-28T16:34:31.635Z,6.38
2023-02-28T16:36:59.125Z,6.93
2023-02-28T16:39:25.714Z,6.55
2023-02-28T16:41:52.998Z,7.78
2023-02-28T16:44:30.327Z,7.72
2023-02-28T16:46:57.276Z,6.80
2023-02-28T16:49:25.304Z,8.02
2023-02-28T16:51:51.830Z,9.35
2023-02-28T16:54:18.464Z,7.18
2023-02-28T16:56:48.268Z,8.05
2023-02-28T16:59:19.237Z,7.25
2023-02-28T17:01:45.867Z,8.25
2023-02-28T17:04:12.920Z,8.85
2023-02-28T17:06:39.477Z,8.50
2023-02-28T17:09:05.977Z,8.02
2023-02-28T17:11:33.696Z,8.88
2023-02-28T17:14:00.184Z,8.40
2023-02-28T17:16:36.088Z,9.05
2023-02-28T17:19:05.525Z,9.50
2023-02-28T17:21:32.929Z,8.57
2023-02-28T17:23:59.865Z,9.25
2023-02-28T17:26:27.112Z,8.20
2023-02-28T17:28:56.753Z,8.82
2023-02-28T17:31:24.699Z,8.60
2023-02-28T17:33:51.530Z,7.93
2023-02-28T17:36:27.036Z,9.77
2023-02-28T17:38:56.067Z,9.35
2023-02-28T17:41:22.829Z,9.02
2023-02-28T17:43:51.221Z,8.70
2023-02-28T17:46:21.500Z,9.05
2023-02-28T17:48:49.435Z,9.27
2023-02-28T17:51:17.179Z,9.45
2023-02-28T17:53:43.956Z,9.57
2023-02-28T17:56:16.894Z,10.23
2023-02-28T17:58:43.419Z,8.90
2023-02-28T18:01:10.448Z,9.30
2023-02-28T18:03:37.085Z,9.05
2023-02-28T18:06:04.209Z,9.18
2023-02-28T18:08:32.164Z,9.77
2023-02-28T18:10:58.669Z,8.90
2023-02-28T18:13:25.254Z,9.57
2023-02-28T18:15:51.863Z,9.65
2023-02-28T18:18:18.466Z,8.88
2023-02-28T18:20:47.456Z,9.63
2023-02-28T18:23:14.677Z,9.35
2023-02-28T18:25:41.673Z,9.27
2023-02-28T18:28:08.300Z,8.60
2023-02-28T18:30:37.676Z,9.23
2023-02-28T18:33:04.609Z,9.80
2023-02-28T18:35:35.181Z,9.50
2023-02-28T18:38:07.929Z,11.32
2023-02-28T18:40:34.630Z,9.93
2023-02-28T18:43:01.398Z,8.57
2023-02-28T18:45:28.059Z,8.85
2023-02-28T18:47:54.650Z,8.27
2023-02-28T18:50:21.241Z,9.30
2023-02-28T18:52:48.172Z,9.13
2023-02-28T18:55:18.791Z,7.95
2023-02-28T18:57:48.331Z,7.75
2023-02-28T19:00:19.665Z,9.27
2023-02-28T19:02:46.140Z,8.90
2023-02-28T19:05:12.729Z,8.13
2023-02-28T19:07:39.261Z,8.07
2023-02-28T19:10:06.323Z,8.48
2023-02-28T19:12:37.220Z,9.30
2023-02-28T19:15:05.549Z,8.57
2023-02-28T19:17:33.225Z,10.48
2023-02-28T19:19:59.902Z,8.50
2023-02-28T19:22:26.483Z,8.95
2023-02-28T19:24:53.026Z,9.02
2023-02-28T19:27:20.032Z,8.32
2023-02-28T19:29:50.929Z,7.93
2023-02-28T19:32:19.694Z,7.32
2023-02-28T19:34:47.131Z,8.40
2023-02-28T19:37:15.190Z,11.75
2023-02-28T19:39:45.457Z,10.75
2023-02-28T19:42:15.053Z,9.05
2023-02-28T19:44:42.069Z,9.07
2023-02-28T19:47:08.934Z,11.45
2023-02-28T19:49:35.467Z,8.20
2023-02-28T19:52:02.165Z,7.97
2023-02-28T19:54:29.063Z,8.45
2023-02-28T19:56:58.419Z,8.95
2023-02-28T19:59:35.877Z,9.00
2023-02-28T20:04:31.808Z,9.07
2023-02-28T20:06:58.629Z,11.35
2023-02-28T20:09:25.192Z,9.57
2023-02-28T20:11:52.083Z,8.50
2023-02-28T20:14:18.793Z,9.20
2023-02-28T20:16:46.049Z,9.25
2023-02-28T20:19:13.217Z,10.82
2023-02-28T20:21:41.406Z,10.68
2023-02-28T20:24:08.144Z,9.07
2023-02-28T20:26:34.984Z,10.80
2023-02-28T20:29:01.519Z,9.50
2023-02-28T20:31:28.757Z,9.63
2023-02-28T20:33:55.347Z,10.10
2023-02-28T20:36:23.468Z,9.68
2023-02-28T20:38:52.783Z,8.98
2023-02-28T20:41:19.623Z,9.43
2023-02-28T20:43:46.622Z,13.35
2023-02-28T20:46:13.476Z,10.38
2023-02-28T20:48:40.570Z,11.93
2023-02-28T20:51:07.576Z,9.75
2023-02-28T20:53:35.815Z,11.40
2023-02-28T20:56:13.601Z,10.13
2023-02-28T20:58:40.374Z,9.30
2023-02-28T21:01:15.809Z,9.55
2023-02-28T21:03:47.396Z,9.68
2023-02-28T21:06:15.390Z,10.88
2023-02-28T21:08:42.636Z,12.15
2023-02-28T21:11:17.266Z,9.73
2023-02-28T21:13:45.397Z,10.23
2023-02-28T21:16:15.050Z,12.30
2023-02-28T21:18:41.866Z,9.55
2023-02-28T21:21:11.429Z,10.18
2023-02-28T21:23:37.995Z,9.65
2023-02-28T21:26:06.639Z,8.43
2023-02-28T21:28:33.693Z,10.75
2023-02-28T21:31:08.882Z,9.32
2023-02-28T21:33:35.984Z,11.18
2023-02-28T21:36:08.590Z,10.02
2023-02-28T21:38:35.884Z,11.57
2023-02-28T21:41:05.592Z,10.43
2023-02-28T21:43:32.276Z,9.82
2023-02-28T21:46:07.637Z,12.77
2023-02-28T21:48:34.502Z,10.15
2023-02-28T21:51:04.283Z,10.60
2023-02-28T21:53:32.305Z,11.02
2023-02-28T21:56:16.549Z,10.25
2023-02-28T21:58:43.121Z,11.88
2023-02-28T22:01:13.930Z,9.70
2023-02-28T22:03:41.475Z,13.07
2023-02-28T22:06:21.071Z,9.98
2023-02-28T22:08:50.154Z,9.93
2023-02-28T22:11:17.190Z,12.20
2023-02-28T22:13:44.507Z,10.35
2023-02-28T22:16:16.705Z,13.13
2023-02-28T22:18:43.792Z,10.75
2023-02-28T22:21:11.394Z,12.50
2023-02-28T22:23:39.367Z,10.98
2023-02-28T22:26:10.958Z,13.23
2023-02-28T22:28:38.108Z,9.68
2023-02-28T22:31:26.771Z,12.07
2023-02-28T22:33:57.061Z,10.77
2023-02-28T22:36:24.345Z,11.95
2023-02-28T22:38:51.745Z,10.05
2023-02-28T22:41:20.742Z,13.07
2023-02-28T22:43:54.845Z,10.95
2023-02-28T22:46:22.971Z,12.82
2023-02-28T22:48:50.382Z,10.85
2023-02-28T22:51:20.696Z,10.60
2023-02-28T22:53:49.375Z,12.50
2023-02-28T22:56:18.131Z,11.18
2023-02-28T22:58:50.588Z,12.93
2023-02-28T23:01:18.941Z,9.85
2023-02-28T23:03:45.571Z,12.43
2023-02-28T23:06:25.700Z,10.10
2023-02-28T23:11:25.624Z,14.18
2023-02-28T23:13:59.002Z,11.20
2023-02-28T23:16:25.632Z,13.40
2023-02-28T23:18:52.190Z,12.65
2023-02-28T23:21:18.702Z,9.70
2023-02-28T23:23:45.813Z,12.90
2023-02-28T23:26:12.365Z,13.48
2023-02-28T23:28:38.864Z,11.43
2023-02-28T23:31:05.420Z,13.77
2023-02-28T23:33:33.154Z,14.18
2023-02-28T23:36:11.321Z,10.15
2023-02-28T23:38:42.068Z,13.95
2023-02-28T23:41:10.093Z,9.65
2023-02-28T23:43:37.126Z,12.30
2023-02-28T23:46:04.045Z,11.32
2023-02-28T23:48:30.776Z,11.75
2023-02-28T23:51:08.362Z,12.93
2023-02-28T23:53:37.235Z,13.00
2023-02-28T23:56:04.718Z,10.07
2023-02-28T23:58:32.389Z,12.40
